Weather observations for the past three days for
Schenck Field Airport
Imperial (Metric)
Date Time (cdt) Wind (mph) Vis. (mi.) Weather Sky Cond. Temperature (ºF) Relative Humidity Wind Chill (°F) Heat Index (°F) Pressure Precipitation (in)
Air Dwpt 6 hour altimeter (in) sea level (mb) 1 hr 3 hr 6 hr
Max. Min.
03 00:55 S 6 10.00 Fair CLR 73.4 68 83% 29.89 0.0
03 00:35 S 6 10.00 Fair CLR 71.6 68 88% 29.89 0.0
03 00:15 S 6 10.00 Fair CLR 71.6 68 88% 29.89 0.0
02 23:55 S 5 10.00 Fair CLR 71.6 69.8 94% 29.89 0.0
02 23:35 Calm 10.00 Fair CLR 71.6 69.8 94% 29.89 0.0
02 23:15 SW 5 10.00 Fair CLR 73.4 69.8 89% 29.89 0.0
02 22:55 S 6 10.00 Fair CLR 73.4 69.8 89% 29.89 0.0
02 22:35 SW 5 10.00 Fair CLR 73.4 69.8 89% 29.89 0.0
02 22:15 SW 5 10.00 Fair CLR 75.2 69.8 83% 75 29.89 0.0
02 21:55 S 5 10.00 Fair CLR 75.2 69.8 83% 75 29.89 0.0
02 21:35 S 5 10.00 Fair CLR 75.2 69.8 83% 75 29.89 0.0
02 21:15 S 5 10.00 Fair CLR 77 71.6 83% 78 29.89 0.0
02 20:55 SW 6 10.00 Fair CLR 77 71.6 83% 78 29.88 0.0
02 20:35 S 5 10.00 Fair CLR 78.8 71.6 79% 82 29.88 0.0
02 20:15 S 3 10.00 Fair CLR 80.6 71.6 74% 85 29.87 0.0
02 19:55 S 5 10.00 Fair CLR 82.4 71.6 70% 87 29.87 0.0
02 19:35 S 5 10.00 Fair CLR 86 71.6 62% 92 29.87 0.0
02 19:15 S 6 10.00 Fair CLR 89.6 69.8 52% 95 29.87 0.0
02 18:55 S 7 10.00 Fair CLR 91.4 71.6 52% 99 29.87 0.0
02 18:35 S 8 10.00 Fair CLR 93.2 71.6 50% 101 29.86 0.0
02 18:15 S 9 10.00 Fair CLR 95 69.8 44% 101 29.86 0.0
02 17:55 S 9 G 16 10.00 Fair CLR 95 69.8 44% 101 29.86 0.0
02 17:35 S 13 10.00 Fair CLR 96.8 69.8 42% 103 29.86 0.0
02 17:15 S 10 G 21 10.00 Fair CLR 96.8 69.8 42% 103 29.86 0.0
02 16:55 S 14 G 21 10.00 Fair CLR 98.6 69.8 39% 106 29.86 0.0
02 16:35 S 13 G 21 10.00 Fair CLR 98.6 68 37% 104 29.87 0.0
02 16:15 S 13 G 24 10.00 Fair CLR 98.6 69.8 39% 106 29.87 0.0
02 15:55 SW 16 10.00 Fair CLR 98.6 69.8 39% 106 29.88 0.0
02 15:35 S 16 G 23 10.00 Fair CLR 98.6 69.8 39% 106 29.88 0.0
02 15:15 SW 15 G 22 10.00 Fair CLR 98.6 69.8 39% 106 29.89 0.0
02 14:55 S 17 G 25 10.00 Fair CLR 98.6 69.8 39% 106 29.9 0.0
02 14:35 SW 17 10.00 Fair CLR 98.6 69.8 39% 106 29.9 0.0
02 14:15 SW 16 10.00 Fair CLR 98.6 69.8 39% 106 29.91 0.0
02 13:55 SW 16 10.00 Fair CLR 96.8 69.8 42% 103 29.91 0.0
02 13:35 S 15 10.00 Fair CLR 96.8 69.8 42% 103 29.92 0.0
02 13:15 SW 13 10.00 Fair CLR 96.8 68 39% 102 29.93 0.0
02 12:55 SW 9 G 17 10.00 Fair CLR 95 69.8 44% 101 29.93 0.0
02 12:35 S 10 G 16 10.00 Fair CLR 95 69.8 44% 101 29.94 0.0
02 12:15 SW 12 G 18 10.00 A Few Clouds FEW100 91.4 68 46% 96 29.94 0.0
02 11:55 SW 8 G 14 10.00 A Few Clouds FEW100 91.4 69.8 49% 97 29.95 0.0
02 11:35 S 12 G 18 10.00 A Few Clouds FEW100 91.4 68 46% 96 29.95 0.0
02 11:15 Vrbl 7 G 18 10.00 Fair CLR 91.4 68 46% 96 29.95 0.0
02 10:55 SW 15 10.00 Fair CLR 91.4 68 46% 96 29.95 0.0
02 10:35 SW 12 G 20 10.00 Fair CLR 89.6 68 49% 93 29.95 0.0
02 10:15 Vrbl 5 10.00 Fair CLR 86 68 55% 89 29.95 0.0
02 09:55 S 5 10.00 Fair CLR 84.2 68 58% 87 29.95 0.0
02 09:35 S 7 10.00 Fair CLR 82.4 68 62% 85 29.95 0.0
02 09:15 S 6 10.00 Fair CLR 80.6 68 66% 83 29.95 0.0
02 08:55 S 5 10.00 Fair CLR 78.8 66.2 65% 81 29.95 0.0
02 08:35 S 6 10.00 Fair CLR 77 66.2 69% 79 29.95 0.0
02 08:15 S 6 10.00 Fair CLR 75.2 66.2 74% 77 29.95 0.0
02 07:55 Calm 10.00 Fair CLR 71.6 66.2 83% 29.95 0.0
02 07:35 Calm 10.00 Fair CLR 68 66.2 94% 29.95 0.0
02 07:15 Calm 10.00 Fair CLR 68 66.2 94% 29.95 0.0
02 06:55 Calm 10.00 Fair CLR 68 64.4 88% 29.95 0.0
02 06:35 NE 6 10.00 A Few Clouds FEW120 68 64.4 88% 29.94 0.0
02 06:15 Calm 10.00 Partly Cloudy SCT120 68 64.4 88% 29.94 0.0
02 05:55 S 5 10.00 Partly Cloudy SCT120 68 64.4 88% 29.94 0.0
02 05:35 S 5 10.00 Fair CLR 68 64.4 88% 29.94 0.0
02 05:15 S 5 10.00 Fair CLR 68 64.4 88% 29.94 0.0
02 04:55 S 5 10.00 A Few Clouds FEW120 69.8 66.2 88% 29.94 0.0
02 04:35 S 5 10.00 Fair CLR 69.8 66.2 88% 29.93 0.0
02 04:15 Calm 10.00 A Few Clouds FEW120 69.8 66.2 88% 29.93 0.0
02 03:55 S 5 10.00 Partly Cloudy SCT120 71.6 66.2 83% 29.93 0.0
02 03:35 S 5 10.00 A Few Clouds FEW120 73.4 66.2 78% 29.93 0.0
02 03:15 Vrbl 6 10.00 Partly Cloudy SCT110 75.2 64.4 69% 77 29.93 0.0
02 02:55 S 6 10.00 Mostly Cloudy BKN120 73.4 64.4 74% 29.93 0.0
02 02:35 S 3 10.00 Mostly Cloudy BKN120 71.6 66.2 83% 29.93 0.0
02 02:15 S 5 10.00 Mostly Cloudy BKN120 73.4 66.2 78% 29.92 0.0
02 01:55 S 3 10.00 Partly Cloudy SCT120 73.4 66.2 78% 29.92 0.0
02 01:15 S 6 10.00 Mostly Cloudy BKN120 71.6 66.2 83% 29.92 0.0
02 00:55 S 5 10.00 A Few Clouds FEW120 71.6 66.2 83% 29.92 0.0
02 00:35 Calm 10.00 Fair CLR 71.6 66.2 83% 29.92 0.0
02 00:15 S 3 10.00 A Few Clouds FEW120 71.6 66.2 83% 29.93 0.0
01 23:55 S 5 10.00 Mostly Cloudy BKN120 71.6 68 88% 29.92 0.0
01 23:35 Calm 10.00 Mostly Cloudy BKN120 71.6 68 88% 29.93 0.0
01 23:15 S 3 10.00 Fair CLR 71.6 68 88% 29.92 0.0
01 22:55 Calm 10.00 Fair CLR 71.6 68 88% 29.93 0.0
01 22:35 S 3 10.00 Fair CLR 73.4 68 83% 29.92 0.0
01 22:15 S 5 10.00 Fair CLR 73.4 68 83% 29.92 0.0
01 21:55 SW 5 10.00 Fair CLR 73.4 68 83% 29.91 0.0
01 21:35 S 6 10.00 Fair CLR 75.2 68 78% 76 29.9 0.0
01 21:15 S 6 10.00 Fair CLR 77 68 74% 79 29.89 0.0
01 20:55 S 7 10.00 Fair CLR 77 68 74% 79 29.89 0.0
01 20:35 S 7 10.00 Fair CLR 78.8 69.8 74% 81 29.88 0.0
01 20:15 S 5 10.00 Fair CLR 80.6 69.8 70% 84 29.88 0.0
01 19:55 S 5 10.00 Fair CLR 82.4 69.8 66% 86 29.88 0.0
01 19:35 S 6 10.00 Fair CLR 87.8 68 52% 91 29.88 0.0
01 19:15 S 7 10.00 Fair CLR 89.6 68 49% 93 29.88 0.0
01 18:55 S 7 10.00 Fair CLR 91.4 69.8 49% 97 29.89 0.0
01 18:35 S 8 10.00 Fair CLR 91.4 69.8 49% 97 29.89 0.0
01 18:15 S 7 G 14 10.00 Fair CLR 95 69.8 44% 101 29.89 0.0
01 17:55 SW 7 10.00 Fair CLR 96.8 68 39% 102 29.89 0.0
01 17:35 SW 10 10.00 Fair CLR 96.8 68 39% 102 29.9 0.0
01 17:15 SW 14 G 20 10.00 Fair CLR 96.8 64.4 34% 99 29.9 0.0
01 16:55 SW 16 G 23 10.00 Fair CLR 98.6 64.4 33% 101 29.9 0.0
01 16:35 SW 20 10.00 Fair CLR 98.6 66.2 35% 103 29.9 0.0
01 16:15 SW 12 G 20 10.00 Fair CLR 98.6 66.2 35% 103 29.9 0.0
01 15:55 S 14 G 21 10.00 Fair CLR 98.6 66.2 35% 103 29.91 0.0
01 15:35 SW 17 10.00 Fair CLR 98.6 64.4 33% 101 29.91 0.0
01 15:15 SW 13 G 25 10.00 Fair CLR 98.6 66.2 35% 103 29.92 0.0
01 14:55 SW 15 10.00 Fair CLR 98.6 66.2 35% 103 29.92 0.0
01 14:35 SW 18 G 24 10.00 Fair CLR 98.6 66.2 35% 103 29.92 0.0
01 14:15 S 15 G 22 10.00 Fair CLR 98.6 66.2 35% 103 29.93 0.0
01 13:55 SW 12 G 20 10.00 Fair CLR 98.6 66.2 35% 103 29.94 0.0
01 13:35 SW 15 10.00 Fair CLR 96.8 66.2 37% 100 29.94 0.0
01 13:15 S 13 10.00 Fair CLR 96.8 66.2 37% 100 29.95 0.0
01 12:55 SW 12 G 20 10.00 Fair CLR 96.8 66.2 37% 100 29.96 0.0
01 12:35 SW 12 10.00 Fair CLR 95 66.2 39% 98 29.97 0.0
01 12:15 SW 10 10.00 Fair CLR 95 64.4 36% 97 29.97 0.0
01 11:55 SW 12 10.00 Fair CLR 95 66.2 39% 98 29.97 0.0
01 11:35 SW 12 10.00 Fair CLR 93.2 66.2 41% 96 29.97 0.0
01 11:15 S 6 10.00 Fair CLR 89.6 69.8 52% 95 29.97 0.0
01 10:55 S 6 10.00 Fair CLR 87.8 68 52% 91 29.97 0.0
01 10:35 S 8 10.00 Fair CLR 86 68 55% 89 29.97 0.0
01 10:15 S 8 10.00 Fair CLR 84.2 68 58% 87 29.97 0.0
01 09:55 S 7 10.00 Fair CLR 82.4 68 62% 85 29.97 0.0
01 09:35 S 7 10.00 Fair CLR 80.6 68 66% 83 29.97 0.0
01 09:15 Calm 10.00 Fair CLR 78.8 68 70% 81 29.98 0.0
01 08:55 S 8 10.00 Fair CLR 75.2 68 78% 76 29.98 0.0
01 08:35 S 7 10.00 Fair CLR 73.4 68 83% 29.98 0.0
01 08:15 S 5 10.00 Fair CLR 71.6 68 88% 29.98 0.0
01 07:55 Calm 10.00 Fair CLR 69.8 68 94% 29.98 0.0
01 07:35 Calm 10.00 Fair CLR 66.2 66.2 100% 29.98 0.0
01 07:15 Calm 10.00 Fair CLR 66.2 66.2 100% 29.97 0.0
01 06:55 Calm 9.00 Fair CLR 66.2 66.2 100% 29.97 0.0
01 06:35 Calm 10.00 Fair CLR 66.2 66.2 100% 29.97 0.0
01 06:15 Calm 10.00 Fair CLR 66.2 66.2 100% 29.97 0.0
01 05:55 Calm 10.00 Fair CLR 66.2 66.2 100% 29.97 0.0
01 05:35 Calm 2.50 Fog/Mist CLR 66.2 66.2 100% 29.97 0.0
01 05:15 Calm 5.00 Fog/Mist CLR 68 66.2 94% 29.97 0.0
01 04:55 Calm 10.00 Fair CLR 68 68 100% 29.97 0.0
01 04:35 Calm 10.00 Fair CLR 68 66.2 94% 29.96 0.0
01 04:15 Calm 10.00 Fair CLR 68 68 100% 29.96 0.0
01 03:55 Calm 10.00 Fair CLR 68 68 100% 29.96 0.0
01 03:35 Calm 10.00 Fair CLR 68 68 100% 29.96 0.0
01 03:15 Calm 10.00 Fair CLR 68 68 100% 29.96 0.0
01 02:55 Calm 10.00 Fair CLR 69.8 68 94% 29.96 0.0
01 02:35 Calm 10.00 Fair CLR 68 68 100% 29.96 0.0
01 02:15 Calm 10.00 Fair CLR 69.8 68 94% 29.96 0.0
01 01:55 Calm 10.00 Fair CLR 69.8 69.8 100% 29.96 0.0
01 01:35 Calm 10.00 Fair CLR 69.8 69.8 100% 29.97 0.0
01 01:15 Calm 10.00 Fair CLR 69.8 69.8 100% 29.97 0.0
01 00:55 Calm 10.00 Fair CLR 71.6 69.8 94% 29.97 0.0
01 00:35 Calm 7.00 Fair CLR 71.6 71.6 100% 29.97 0.0
01 00:15 Calm 10.00 Fair CLR 73.4 71.6 94% 29.97 0.0
31 23:55 Calm 10.00 Fair CLR 73.4 73.4 100% 29.97 0.0
31 23:35 Calm 10.00 Fair CLR 73.4 73.4 100% 29.96 0.0
31 23:15 Calm 10.00 Fair CLR 73.4 73.4 100% 29.96 0.0
31 22:55 S 3 10.00 Fair CLR 73.4 73.4 100% 29.95 0.0
31 22:35 Calm 10.00 Fair CLR 73.4 73.4 100% 29.95 0.0
31 22:15 Calm 10.00 Fair CLR 75.2 73.4 94% 74 29.95 0.0
31 21:55 Calm 10.00 Fair CLR 75.2 75.2 100% 73 29.95 0.0
31 21:35 Calm 10.00 Fair CLR 75.2 75.2 100% 73 29.95 0.0
31 21:15 Calm 9.00 Fair CLR 77 75.2 94% 78 29.94 0.0
31 20:55 Calm 10.00 Fair CLR 77 75.2 94% 78 29.94 0.0
31 20:35 Calm 10.00 Fair CLR 78.8 75.2 89% 82 29.93 0.0
31 20:15 Calm 10.00 Fair CLR 78.8 75.2 89% 82 29.93 0.0
31 19:55 Calm 10.00 Fair CLR 82.4 77 84% 91 29.93 0.0
31 19:35 Calm 10.00 Fair CLR 86 77 75% 97 29.93 0.0
31 19:15 Calm 10.00 Fair CLR 87.8 77 70% 100 29.93 0.0
31 18:35 SW 5 10.00 Fair CLR 91.4 75.2 59% 103 29.93 0.0
31 18:15 SW 6 10.00 Fair CLR 93.2 71.6 50% 101 29.93 0.0
31 17:55 SW 7 10.00 Fair CLR 93.2 71.6 50% 101 29.93 0.0
31 17:35 SW 8 10.00 Fair CLR 95 71.6 47% 103 29.93 0.0
31 17:15 SW 9 10.00 Fair CLR 95 71.6 47% 103 29.93 0.0
31 16:55 SW 8 10.00 Fair CLR 95 71.6 47% 103 29.93 0.0
31 16:35 SW 7 G 14 10.00 Fair CLR 95 71.6 47% 103 29.93 0.0
31 16:15 SW 8 10.00 Fair CLR 96.8 71.6 44% 105 29.93 0.0
31 15:55 SW 8 10.00 Fair CLR 95 71.6 47% 103 29.93 0.0
31 15:35 SW 7 10.00 Fair CLR 95 71.6 47% 103 29.94 0.0
31 15:15 SW 7 10.00 Fair CLR 95 71.6 47% 103 29.94 0.0
31 14:55 SW 8 10.00 Fair CLR 95 71.6 47% 103 29.94 0.0
31 14:35 SW 8 10.00 Fair CLR 95 71.6 47% 103 29.94 0.0
31 14:15 SW 7 10.00 Fair CLR 95 71.6 47% 103 29.95 0.0
31 13:55 SW 9 10.00 Fair CLR 95 71.6 47% 103 29.95 0.0
31 13:35 Vrbl 7 10.00 Fair CLR 93.2 69.8 47% 99 29.95 0.0
31 13:15 SW 7 10.00 Fair CLR 93.2 71.6 50% 101 29.95 0.0
31 12:55 S 7 10.00 Fair CLR 93.2 71.6 50% 101 29.94 0.0
31 12:35 SW 5 10.00 Fair CLR 91.4 69.8 49% 97 29.94 0.0
31 12:15 SW 9 10.00 Fair CLR 91.4 71.6 52% 99 29.95 0.0
31 11:55 S 9 10.00 Fair CLR 89.6 71.6 55% 96 29.95 0.0
31 11:35 S 7 9.00 Fair CLR 86 71.6 62% 92 29.94 0.0
31 11:15 S 5 10.00 Fair CLR 84.2 69.8 62% 88 29.93 0.0
31 10:55 Vrbl 5 10.00 Fair CLR 86 69.8 59% 91 29.92 0.0
31 10:35 S 5 10.00 Fair CLR 84.2 68 58% 87 29.92 0.0
31 10:15 S 8 10.00 Fair CLR 84.2 69.8 62% 88 29.92 0.0
31 09:35 S 6 10.00 Fair CLR 80.6 68 66% 83 29.92 0.0
31 09:15 Calm 10.00 Fair CLR 77 68 74% 79 29.92 0.0
31 08:55 S 8 10.00 Fair CLR 78.8 68 70% 81 29.93 0.0
31 08:35 SW 6 10.00 Fair CLR 77 68 74% 79 29.93 0.0
31 08:15 S 5 10.00 Fair CLR 78.8 68 70% 81 29.92 0.0
31 07:55 Calm 10.00 Fair CLR 75.2 68 78% 76 29.91 0.0
31 07:35 SW 3 10.00 Fair CLR 73.4 66.2 78% 29.9 0.0
31 07:15 S 8 10.00 Fair CLR 73.4 66.2 78% 29.89 0.0
31 06:55 S 8 10.00 Fair CLR 75.2 64.4 69% 77 29.88 0.0
31 06:35 S 6 10.00 Fair CLR 75.2 64.4 69% 77 29.88 0.0
31 06:15 S 5 10.00 Fair CLR 73.4 66.2 78% 29.88 0.0
31 05:55 S 3 10.00 Fair CLR 69.8 66.2 88% 29.88 0.0
31 05:35 Calm 10.00 Fair CLR 71.6 66.2 83% 29.87 0.0
31 05:15 S 5 10.00 Fair CLR 73.4 66.2 78% 29.87 0.0
31 04:55 S 7 10.00 Fair CLR 73.4 64.4 74% 29.86 0.0
31 04:35 S 5 10.00 Fair CLR 73.4 64.4 74% 29.87 0.0
31 04:15 S 5 10.00 Fair CLR 73.4 66.2 78% 29.86 0.0
31 03:55 S 7 10.00 Fair CLR 73.4 66.2 78% 29.86 0.0
31 03:35 S 6 10.00 Fair CLR 75.2 64.4 69% 77 29.85 0.0
31 03:15 S 9 10.00 Fair CLR 77 64.4 65% 79 29.85 0.0
31 02:55 S 12 10.00 Fair CLR 77 64.4 65% 79 29.85 0.0
31 02:35 S 10 10.00 Fair CLR 77 64.4 65% 79 29.85 0.0
31 02:15 S 7 10.00 Fair CLR 75.2 66.2 74% 77 29.85 0.0
31 01:55 S 8 10.00 Fair CLR 75.2 66.2 74% 77 29.85 0.0
31 01:35 S 8 10.00 Fair CLR 75.2 66.2 74% 77 29.85 0.0
31 01:15 S 8 10.00 Fair CLR 77 66.2 69% 79 29.85 0.0
Date Time (cdt) Wind (mph) Vis. (mi.) Weather Sky Cond. Air Dwpt Max. Min. Relative Humidity Wind Chill (°F) Heat Index (°F) altimeter (in) sea level (mb) 1 hr 3 hr 6 hr
6 hour
Temperature (ºF) Pressure Precipitation (in)